Time;durP1;ratioP1;P1;durP2;ratioP2;P2;SDS_P1;SDS_P2;PMS_P1;PMS_P2;Temp;Humidity;BMP_temperature;BMP_pressure;BME280_temperature;BME280_humidity;BME280_pressure;Samples;Min_cycle;Max_cycle;Signal;HPM_P1;HPM_P2
2021/07/30 00:02:04;;;;;;;7.70;3.65;;;;;;;;;;5113474;28;20042;-66
2021/07/30 00:04:30;;;;;;;6.40;3.15;;;;;;;;;;5113770;28;20027;-66
2021/07/30 00:06:56;;;;;;;4.05;3.00;;;;;;;;;;5113498;28;20027;-66
2021/07/30 00:09:23;;;;;;;4.05;3.13;;;;;;;;;;5113469;28;20474;-66
2021/07/30 00:11:49;;;;;;;5.00;3.47;;;;;;;;;;5111920;28;20052;-66
2021/07/30 00:14:17;;;;;;;3.90;3.25;;;;;;;;;;5113628;28;20510;-65
2021/07/30 00:16:43;;;;;;;4.38;3.45;;;;;;;;;;5112218;28;20115;-66
2021/07/30 00:19:09;;;;;;;6.72;3.25;;;;;;;;;;5113338;28;20039;-66
2021/07/30 00:21:35;;;;;;;4.38;3.80;;;;;;;;;;5112283;28;20032;-66
2021/07/30 00:24:01;;;;;;;8.50;3.50;;;;;;;;;;5113153;28;20020;-66
2021/07/30 00:26:28;;;;;;;5.25;4.20;;;;;;;;;;5113248;28;20020;-66
2021/07/30 00:28:54;;;;;;;8.65;3.60;;;;;;;;;;5113309;28;20020;-66
2021/07/30 00:31:20;;;;;;;5.47;3.92;;;;;;;;;;5113066;28;20051;-66
2021/07/30 00:33:46;;;;;;;3.03;2.72;;;;;;;;;;5112962;28;20039;-65
2021/07/30 00:36:12;;;;;;;4.90;3.20;;;;;;;;;;5112422;28;20098;-66
2021/07/30 00:38:38;;;;;;;3.78;2.92;;;;;;;;;;5112912;28;20034;-65
2021/07/30 00:41:04;;;;;;;5.97;3.17;;;;;;;;;;5112889;28;20024;-65
2021/07/30 00:43:30;;;;;;;4.78;3.33;;;;;;;;;;5111500;28;20394;-66
2021/07/30 00:45:57;;;;;;;4.82;3.35;;;;;;;;;;5112869;28;20023;-65
2021/07/30 00:48:24;;;;;;;5.82;3.22;;;;;;;;;;5112791;28;20023;-66
2021/07/30 00:50:50;;;;;;;6.55;3.20;;;;;;;;;;5112862;28;20031;-64
2021/07/30 00:53:17;;;;;;;8.05;3.05;;;;;;;;;;5111712;28;20019;-66
2021/07/30 00:55:44;;;;;;;5.22;2.80;;;;;;;;;;5113082;28;20051;-66
2021/07/30 00:58:11;;;;;;;3.35;2.72;;;;;;;;;;5112812;28;20016;-66
2021/07/30 01:00:38;;;;;;;3.40;2.97;;;;;;;;;;5112546;28;20172;-66
2021/07/30 01:03:04;;;;;;;5.03;3.25;;;;;;;;;;5095547;28;20016;-66
2021/07/30 01:05:31;;;;;;;4.05;3.03;;;;;;;;;;5092338;28;20024;-65
2021/07/30 01:07:58;;;;;;;4.80;3.15;;;;;;;;;;5092286;28;20056;-66
2021/07/30 01:10:24;;;;;;;5.43;2.78;;;;;;;;;;5092249;28;20098;-68
2021/07/30 01:12:50;;;;;;;4.93;2.92;;;;;;;;;;5098845;28;20031;-66
2021/07/30 01:15:16;;;;;;;7.93;3.65;;;;;;;;;;5097622;28;20035;-67
2021/07/30 01:17:42;;;;;;;5.05;3.30;;;;;;;;;;5092086;28;20027;-65
2021/07/30 01:20:12;;;;;;;4.18;2.72;;;;;;;;;;5092148;28;20427;-66
2021/07/30 01:22:50;;;;;;;3.97;3.00;;;;;;;;;;5091950;28;20024;-66
2021/07/30 01:25:16;;;;;;;3.13;2.80;;;;;;;;;;5092254;28;20111;-66
2021/07/30 01:27:42;;;;;;;5.15;3.30;;;;;;;;;;5092218;28;20027;-66
2021/07/30 01:30:08;;;;;;;6.32;3.80;;;;;;;;;;5092030;28;20103;-66
2021/07/30 01:32:34;;;;;;;4.93;3.58;;;;;;;;;;5092832;28;20032;-66
2021/07/30 01:35:02;;;;;;;5.03;3.38;;;;;;;;;;5096305;28;20020;-65
2021/07/30 01:37:28;;;;;;;6.35;3.45;;;;;;;;;;5096289;28;20054;-66
2021/07/30 01:39:54;;;;;;;6.40;4.10;;;;;;;;;;5096016;28;20028;-65
2021/07/30 01:42:20;;;;;;;5.05;3.88;;;;;;;;;;5096050;28;20024;-66
2021/07/30 01:44:47;;;;;;;6.25;3.35;;;;;;;;;;5095684;28;20098;-66
2021/07/30 01:47:13;;;;;;;4.28;3.53;;;;;;;;;;5095873;28;20017;-66
2021/07/30 01:49:39;;;;;;;5.82;4.03;;;;;;;;;;5110527;28;20493;-66
2021/07/30 01:52:06;;;;;;;4.40;3.47;;;;;;;;;;5116191;28;20072;-66
2021/07/30 01:54:32;;;;;;;6.00;3.80;;;;;;;;;;5116001;28;20056;-66
2021/07/30 01:56:58;;;;;;;5.13;3.92;;;;;;;;;;5116217;28;20027;-67
2021/07/30 01:59:24;;;;;;;6.57;3.92;;;;;;;;;;5115768;28;20047;-66
2021/07/30 02:01:50;;;;;;;5.70;3.90;;;;;;;;;;5116232;28;20112;-66
2021/07/30 02:04:18;;;;;;;7.22;4.28;;;;;;;;;;5116281;28;20032;-67
2021/07/30 02:06:45;;;;;;;6.53;3.78;;;;;;;;;;5115982;28;20019;-67
2021/07/30 02:09:11;;;;;;;6.45;4.57;;;;;;;;;;5115850;28;20444;-66
2021/07/30 02:11:37;;;;;;;6.03;4.50;;;;;;;;;;5115898;28;20027;-66
2021/07/30 02:14:15;;;;;;;19.23;4.82;;;;;;;;;;5115487;28;20567;-66
2021/07/30 02:16:42;;;;;;;6.88;4.55;;;;;;;;;;5114629;28;20031;-66
2021/07/30 02:19:08;;;;;;;7.40;4.55;;;;;;;;;;5115678;28;20034;-66
2021/07/30 02:21:34;;;;;;;6.80;4.55;;;;;;;;;;5115599;28;20024;-66
2021/07/30 02:24:00;;;;;;;7.45;4.85;;;;;;;;;;5115550;28;20068;-66
2021/07/30 02:26:27;;;;;;;6.43;4.90;;;;;;;;;;5115560;28;20077;-67
2021/07/30 02:28:56;;;;;;;8.20;5.05;;;;;;;;;;5115335;28;20048;-66
2021/07/30 02:31:23;;;;;;;8.63;4.88;;;;;;;;;;5115538;28;20023;-66
2021/07/30 02:33:49;;;;;;;8.10;5.07;;;;;;;;;;5115246;28;20501;-67
2021/07/30 02:36:15;;;;;;;6.90;5.18;;;;;;;;;;5115241;28;20034;-67
2021/07/30 02:38:41;;;;;;;9.40;5.40;;;;;;;;;;5115388;28;20148;-66
2021/07/30 02:41:07;;;;;;;6.45;4.97;;;;;;;;;;5115235;28;20026;-66
2021/07/30 02:43:33;;;;;;;7.05;5.07;;;;;;;;;;5114991;28;20088;-67
2021/07/30 02:46:00;;;;;;;8.13;4.50;;;;;;;;;;5114384;28;20042;-66
2021/07/30 02:48:26;;;;;;;7.07;5.00;;;;;;;;;;5115117;28;20023;-67
2021/07/30 02:50:52;;;;;;;7.63;5.45;;;;;;;;;;5115409;27;20023;-66
2021/07/30 02:53:18;;;;;;;8.30;5.97;;;;;;;;;;5115035;28;20371;-66
2021/07/30 02:55:46;;;;;;;7.47;5.75;;;;;;;;;;5114989;28;20055;-67
2021/07/30 02:58:12;;;;;;;6.10;5.28;;;;;;;;;;5114786;28;20521;-67
2021/07/30 03:00:38;;;;;;;8.45;5.72;;;;;;;;;;5114767;28;20050;-66
2021/07/30 03:03:04;;;;;;;7.25;5.65;;;;;;;;;;5114937;28;20084;-66
2021/07/30 03:05:31;;;;;;;8.52;5.35;;;;;;;;;;5114513;28;20474;-67
2021/07/30 03:07:57;;;;;;;9.85;5.60;;;;;;;;;;5113560;28;20036;-67
2021/07/30 03:10:23;;;;;;;9.52;5.50;;;;;;;;;;5114870;28;20024;-66
2021/07/30 03:12:49;;;;;;;6.88;5.38;;;;;;;;;;5114751;28;20099;-66
2021/07/30 03:15:15;;;;;;;7.90;5.57;;;;;;;;;;5114373;28;20034;-66
2021/07/30 03:17:41;;;;;;;7.85;6.05;;;;;;;;;;5113962;28;20032;-65
2021/07/30 03:20:08;;;;;;;9.43;6.03;;;;;;;;;;5114300;28;20030;-66
2021/07/30 03:22:34;;;;;;;10.32;6.10;;;;;;;;;;5114584;28;20042;-66
2021/07/30 03:25:00;;;;;;;10.55;6.38;;;;;;;;;;5113969;28;20020;-66
2021/07/30 03:27:26;;;;;;;7.72;5.75;;;;;;;;;;5114537;28;20024;-66
2021/07/30 03:29:53;;;;;;;10.48;6.30;;;;;;;;;;5114391;28;20020;-66
2021/07/30 03:32:19;;;;;;;8.95;5.75;;;;;;;;;;5114331;28;20047;-67
2021/07/30 03:34:46;;;;;;;13.13;6.45;;;;;;;;;;5114324;28;20041;-66
2021/07/30 03:37:12;;;;;;;11.05;6.65;;;;;;;;;;5114201;28;20023;-66
2021/07/30 03:39:38;;;;;;;14.07;6.32;;;;;;;;;;5114190;28;20478;-66
2021/07/30 03:42:05;;;;;;;11.10;5.97;;;;;;;;;;5114071;28;20493;-66
2021/07/30 03:44:31;;;;;;;9.45;5.60;;;;;;;;;;5114071;28;20051;-67
2021/07/30 03:46:57;;;;;;;9.48;6.00;;;;;;;;;;5113891;28;20031;-66
2021/07/30 03:49:23;;;;;;;8.63;6.70;;;;;;;;;;5113955;28;20026;-67
2021/07/30 03:51:50;;;;;;;13.63;8.00;;;;;;;;;;5114007;28;20050;-66
2021/07/30 03:54:17;;;;;;;12.20;7.80;;;;;;;;;;5114062;28;20387;-66
2021/07/30 03:56:44;;;;;;;11.10;6.70;;;;;;;;;;5113502;28;20078;-67
2021/07/30 03:59:10;;;;;;;12.85;7.82;;;;;;;;;;5113065;28;20040;-66
2021/07/30 04:01:37;;;;;;;11.40;6.63;;;;;;;;;;5113541;28;20055;-66
2021/07/30 04:04:03;;;;;;;9.35;5.97;;;;;;;;;;5113623;28;20141;-67
2021/07/30 04:06:32;;;;;;;13.57;7.30;;;;;;;;;;5113520;28;20016;-66
2021/07/30 04:08:58;;;;;;;9.02;6.10;;;;;;;;;;5113640;28;20019;-66
2021/07/30 04:11:24;;;;;;;10.60;7.18;;;;;;;;;;5113664;28;20563;-66
2021/07/30 04:13:51;;;;;;;11.68;6.78;;;;;;;;;;5109956;28;20049;-65
2021/07/30 04:16:20;;;;;;;11.45;5.95;;;;;;;;;;5112461;28;20026;-66
2021/07/30 04:18:46;;;;;;;10.77;6.25;;;;;;;;;;5113387;28;20035;-66
2021/07/30 04:21:12;;;;;;;9.48;6.15;;;;;;;;;;5111940;28;20034;-65
2021/07/30 04:23:38;;;;;;;10.30;6.57;;;;;;;;;;5113281;28;20416;-66
2021/07/30 04:26:04;;;;;;;11.15;7.05;;;;;;;;;;5113250;28;20047;-65
2021/07/30 04:28:30;;;;;;;12.38;6.15;;;;;;;;;;5113659;28;20020;-66
2021/07/30 04:30:56;;;;;;;11.43;7.47;;;;;;;;;;5113547;28;20115;-66
2021/07/30 04:33:23;;;;;;;10.52;6.47;;;;;;;;;;5113384;28;20478;-66
2021/07/30 04:35:49;;;;;;;11.98;6.30;;;;;;;;;;5112882;28;20509;-66
2021/07/30 04:38:15;;;;;;;10.05;6.93;;;;;;;;;;5113262;28;20486;-66
2021/07/30 04:40:41;;;;;;;13.73;6.15;;;;;;;;;;5113281;28;20363;-67
2021/07/30 04:43:07;;;;;;;10.77;6.72;;;;;;;;;;5112867;28;20028;-66
2021/07/30 04:45:37;;;;;;;12.75;7.07;;;;;;;;;;5113220;28;20073;-65
2021/07/30 04:48:03;;;;;;;9.32;6.07;;;;;;;;;;5112695;28;20054;-66
2021/07/30 04:50:30;;;;;;;8.80;5.90;;;;;;;;;;5111857;28;20026;-66
2021/07/30 04:52:56;;;;;;;10.80;6.53;;;;;;;;;;5112868;28;20538;-65
2021/07/30 04:55:22;;;;;;;10.88;6.65;;;;;;;;;;5113370;28;20386;-65
2021/07/30 04:57:48;;;;;;;9.10;6.53;;;;;;;;;;5112595;28;20023;-66
2021/07/30 05:00:15;;;;;;;10.77;5.78;;;;;;;;;;5112554;28;20448;-66
2021/07/30 05:02:41;;;;;;;7.97;5.68;;;;;;;;;;5112656;28;20038;-66
2021/07/30 05:05:07;;;;;;;10.20;5.70;;;;;;;;;;5112716;28;20023;-66
2021/07/30 05:07:33;;;;;;;8.95;5.47;;;;;;;;;;5107440;28;20073;-65
2021/07/30 05:09:59;;;;;;;8.13;6.05;;;;;;;;;;5092052;28;20020;-66
2021/07/30 05:12:25;;;;;;;10.38;5.95;;;;;;;;;;5092281;28;20012;-66
2021/07/30 05:14:51;;;;;;;12.40;6.65;;;;;;;;;;5092176;28;20104;-66
2021/07/30 05:17:20;;;;;;;11.38;6.13;;;;;;;;;;5091995;28;20028;-66
2021/07/30 05:19:46;;;;;;;11.45;6.32;;;;;;;;;;5092135;28;20056;-66
2021/07/30 05:22:12;;;;;;;11.63;6.40;;;;;;;;;;5091899;28;20020;-66
2021/07/30 05:24:38;;;;;;;11.07;6.32;;;;;;;;;;5092093;28;20024;-65
2021/07/30 05:27:08;;;;;;;11.10;5.93;;;;;;;;;;5091919;28;20471;-66
2021/07/30 05:29:34;;;;;;;10.02;6.43;;;;;;;;;;5092135;28;20071;-66
2021/07/30 05:32:00;;;;;;;10.38;5.40;;;;;;;;;;5091982;28;20463;-66
2021/07/30 05:34:26;;;;;;;9.48;6.05;;;;;;;;;;5092020;28;20032;-66
2021/07/30 05:36:53;;;;;;;9.60;5.72;;;;;;;;;;5091702;28;20024;-65
2021/07/30 05:39:19;;;;;;;12.35;6.90;;;;;;;;;;5092220;28;20387;-66
2021/07/30 05:41:45;;;;;;;9.45;5.30;;;;;;;;;;5091939;28;20035;-66
2021/07/30 05:44:11;;;;;;;9.43;5.82;;;;;;;;;;5091934;28;20111;-67
2021/07/30 05:46:40;;;;;;;12.15;6.85;;;;;;;;;;5092152;28;20529;-65
2021/07/30 05:49:06;;;;;;;11.45;6.65;;;;;;;;;;5100320;28;20061;-66
2021/07/30 05:51:35;;;;;;;10.10;6.47;;;;;;;;;;5112091;28;20030;-66
2021/07/30 05:54:01;;;;;;;8.98;5.32;;;;;;;;;;5112506;28;20097;-66
2021/07/30 05:56:27;;;;;;;10.35;5.95;;;;;;;;;;5112623;28;20085;-66
2021/07/30 05:58:53;;;;;;;12.80;6.28;;;;;;;;;;5112009;28;20030;-66
2021/07/30 06:01:19;;;;;;;11.77;5.65;;;;;;;;;;5111912;28;20024;-65
2021/07/30 06:03:45;;;;;;;13.23;6.32;;;;;;;;;;5112225;28;20549;-66
2021/07/30 06:06:11;;;;;;;13.02;6.40;;;;;;;;;;5111784;28;20019;-66
2021/07/30 06:08:37;;;;;;;11.98;6.38;;;;;;;;;;5103335;28;20027;-65
2021/07/30 06:11:04;;;;;;;11.88;6.55;;;;;;;;;;5112298;28;20089;-66
2021/07/30 06:13:30;;;;;;;11.93;5.85;;;;;;;;;;5109291;28;20382;-65
2021/07/30 06:15:57;;;;;;;12.07;7.45;;;;;;;;;;5111716;28;20111;-66
2021/07/30 06:18:23;;;;;;;10.52;6.07;;;;;;;;;;5110525;28;20028;-66
2021/07/30 06:20:50;;;;;;;7.45;5.47;;;;;;;;;;5113198;28;20027;-66
2021/07/30 06:23:16;;;;;;;8.88;6.28;;;;;;;;;;5115700;28;20405;-65
2021/07/30 06:25:42;;;;;;;9.10;5.93;;;;;;;;;;5115711;28;20024;-66
2021/07/30 06:28:08;;;;;;;9.20;6.20;;;;;;;;;;5115451;28;20024;-66
2021/07/30 06:30:34;;;;;;;8.52;5.18;;;;;;;;;;5115472;28;20099;-65
2021/07/30 06:33:00;;;;;;;10.13;5.50;;;;;;;;;;5115564;28;20442;-66
2021/07/30 06:35:27;;;;;;;11.40;6.20;;;;;;;;;;5115425;28;20031;-66
2021/07/30 06:37:53;;;;;;;8.95;6.50;;;;;;;;;;5115148;28;20015;-66
2021/07/30 06:40:20;;;;;;;11.18;5.60;;;;;;;;;;5115316;28;20020;-65
2021/07/30 06:42:46;;;;;;;10.07;5.80;;;;;;;;;;5115521;28;20020;-66
2021/07/30 06:45:12;;;;;;;12.40;5.47;;;;;;;;;;5111845;28;20065;-66
2021/07/30 06:47:38;;;;;;;11.90;5.80;;;;;;;;;;5114560;28;20020;-66
2021/07/30 06:50:05;;;;;;;10.07;5.60;;;;;;;;;;5113746;28;20099;-66
2021/07/30 06:52:31;;;;;;;9.82;5.53;;;;;;;;;;5113553;28;20019;-66
2021/07/30 06:54:58;;;;;;;8.98;5.28;;;;;;;;;;5115026;28;20068;-66
2021/07/30 06:57:24;;;;;;;11.80;6.40;;;;;;;;;;5114804;28;20020;-66
2021/07/30 06:59:50;;;;;;;9.60;5.65;;;;;;;;;;5113379;28;20044;-65
2021/07/30 07:02:16;;;;;;;11.80;5.32;;;;;;;;;;5113911;28;20529;-66
2021/07/30 07:04:42;;;;;;;9.70;6.30;;;;;;;;;;5113738;28;20024;-65
2021/07/30 07:07:09;;;;;;;8.52;5.00;;;;;;;;;;5113483;28;20023;-66
2021/07/30 07:09:35;;;;;;;10.43;5.63;;;;;;;;;;5106299;28;20034;-65
2021/07/30 07:12:04;;;;;;;10.00;6.05;;;;;;;;;;5110821;28;20030;-66
2021/07/30 07:14:30;;;;;;;9.38;6.28;;;;;;;;;;5100138;28;20071;-66
2021/07/30 07:16:56;;;;;;;10.95;5.78;;;;;;;;;;5098898;28;20035;-67
2021/07/30 07:19:23;;;;;;;10.07;5.90;;;;;;;;;;5107144;28;20050;-67
2021/07/30 07:21:54;;;;;;;13.57;6.13;;;;;;;;;;5110001;28;20061;-66
2021/07/30 07:24:20;;;;;;;10.82;6.30;;;;;;;;;;5110316;28;20034;-67
2021/07/30 07:26:46;;;;;;;10.20;5.72;;;;;;;;;;5111288;28;20424;-67
2021/07/30 07:29:12;;;;;;;9.00;5.47;;;;;;;;;;5108532;28;20031;-67
2021/07/30 07:31:39;;;;;;;10.98;6.30;;;;;;;;;;5099257;28;20482;-67
2021/07/30 07:34:05;;;;;;;9.48;6.03;;;;;;;;;;5103490;28;20039;-68
2021/07/30 07:36:31;;;;;;;12.55;5.47;;;;;;;;;;5100094;28;20050;-64
2021/07/30 07:38:57;;;;;;;8.90;5.95;;;;;;;;;;5097149;28;20402;-66
2021/07/30 07:41:25;;;;;;;9.02;5.25;;;;;;;;;;5098063;28;20089;-67
2021/07/30 07:43:51;;;;;;;9.35;6.13;;;;;;;;;;5105073;28;20111;-66
2021/07/30 07:46:17;;;;;;;11.73;5.63;;;;;;;;;;5097757;28;20397;-67
2021/07/30 07:48:43;;;;;;;12.18;6.82;;;;;;;;;;5098762;28;20490;-68
2021/07/30 07:51:09;;;;;;;11.43;5.93;;;;;;;;;;5092235;28;20417;-68
2021/07/30 07:53:35;;;;;;;11.00;5.97;;;;;;;;;;5090204;28;20073;-66
2021/07/30 07:56:02;;;;;;;10.25;5.30;;;;;;;;;;5089462;28;20632;-67
2021/07/30 07:58:29;;;;;;;12.77;6.18;;;;;;;;;;5092478;28;20028;-67
2021/07/30 08:00:55;;;;;;;12.73;6.82;;;;;;;;;;5108851;28;20071;-66
2021/07/30 08:03:21;;;;;;;12.32;5.63;;;;;;;;;;5103009;28;20032;-67
2021/07/30 08:05:47;;;;;;;9.93;5.75;;;;;;;;;;5100666;28;20032;-67
2021/07/30 08:08:13;;;;;;;9.02;5.50;;;;;;;;;;5094442;28;20027;-66
2021/07/30 08:10:40;;;;;;;6.22;5.00;;;;;;;;;;5103384;28;20024;-66
2021/07/30 08:13:06;;;;;;;6.90;4.85;;;;;;;;;;5093339;28;20086;-67
2021/07/30 08:15:32;;;;;;;8.32;5.32;;;;;;;;;;5097450;28;20111;-68
2021/07/30 08:17:58;;;;;;;9.70;5.10;;;;;;;;;;5093651;28;20509;-67
2021/07/30 08:20:24;;;;;;;12.43;6.18;;;;;;;;;;5097836;28;20044;-68
2021/07/30 08:22:51;;;;;;;8.55;4.63;;;;;;;;;;5099456;28;20027;-67
2021/07/30 08:25:17;;;;;;;7.95;4.68;;;;;;;;;;5106010;28;20023;-68
2021/07/30 08:27:43;;;;;;;10.20;4.88;;;;;;;;;;5094623;28;20080;-66
2021/07/30 08:30:09;;;;;;;10.90;4.25;;;;;;;;;;5105989;28;20051;-67
2021/07/30 08:32:35;;;;;;;8.25;4.68;;;;;;;;;;5105661;28;20139;-66
2021/07/30 08:35:02;;;;;;;6.40;4.18;;;;;;;;;;5109371;28;20474;-66
2021/07/30 08:37:28;;;;;;;6.65;4.35;;;;;;;;;;5109506;28;20058;-66
2021/07/30 08:39:54;;;;;;;5.13;3.97;;;;;;;;;;5105199;28;20138;-66
2021/07/30 08:42:20;;;;;;;8.02;4.63;;;;;;;;;;5096575;28;20035;-66
2021/07/30 08:44:47;;;;;;;6.53;3.90;;;;;;;;;;5103213;28;20019;-66
2021/07/30 08:47:14;;;;;;;6.88;4.18;;;;;;;;;;5107514;28;20418;-67
2021/07/30 08:49:40;;;;;;;7.43;3.92;;;;;;;;;;5101643;28;20032;-67
2021/07/30 08:52:10;;;;;;;5.95;3.75;;;;;;;;;;5100501;28;20039;-66
2021/07/30 08:54:36;;;;;;;7.68;3.92;;;;;;;;;;5099054;28;20028;-66
2021/07/30 08:57:08;;;;;;;6.38;3.85;;;;;;;;;;5099583;28;20537;-66
2021/07/30 08:59:38;;;;;;;5.25;3.38;;;;;;;;;;5102568;28;20089;-67
2021/07/30 09:02:06;;;;;;;4.90;3.58;;;;;;;;;;5101230;28;20043;-66
2021/07/30 09:04:33;;;;;;;5.40;4.07;;;;;;;;;;5096942;28;20132;-67
2021/07/30 09:07:02;;;;;;;6.65;4.05;;;;;;;;;;5102334;28;20055;-66
2021/07/30 09:09:32;;;;;;;7.00;3.42;;;;;;;;;;5103881;28;20070;-66
2021/07/30 09:12:00;;;;;;;4.97;3.53;;;;;;;;;;5102415;28;20036;-68
2021/07/30 09:14:33;;;;;;;5.60;3.95;;;;;;;;;;5091879;28;20070;-66
2021/07/30 09:17:00;;;;;;;6.55;4.00;;;;;;;;;;5087443;28;20028;-68
2021/07/30 09:19:26;;;;;;;5.28;4.05;;;;;;;;;;5100355;28;20139;-67
2021/07/30 09:22:01;;;;;;;7.55;3.58;;;;;;;;;;5102063;28;20028;-66
2021/07/30 09:24:32;;;;;;;8.93;5.07;;;;;;;;;;5103004;28;20092;-68
2021/07/30 09:27:00;;;;;;;6.20;4.00;;;;;;;;;;5095723;28;20495;-68
2021/07/30 09:29:27;;;;;;;5.60;3.75;;;;;;;;;;5094245;28;20152;-68
2021/07/30 09:31:58;;;;;;;5.47;4.20;;;;;;;;;;5094418;28;20467;-67
2021/07/30 09:34:26;;;;;;;5.78;3.50;;;;;;;;;;5095117;28;20156;-67
2021/07/30 09:37:01;;;;;;;5.75;4.05;;;;;;;;;;5108205;28;20024;-67
2021/07/30 09:39:27;;;;;;;;;;;;;;;;;;5091447;28;20206;-69
2021/07/30 09:41:54;;;;;;;6.28;3.78;;;;;;;;;;5108128;28;20002;-66
2021/07/30 09:44:20;;;;;;;4.40;3.20;;;;;;;;;;5094334;28;20024;-67
2021/07/30 09:47:04;;;;;;;4.68;3.30;;;;;;;;;;5097985;28;20031;-67
2021/07/30 09:49:44;;;;;;;5.13;3.90;;;;;;;;;;5107048;28;20027;-66
2021/07/30 09:52:20;;;;;;;5.50;4.30;;;;;;;;;;5093833;28;20031;-66
2021/07/30 09:54:47;;;;;;;6.22;3.85;;;;;;;;;;5104461;28;20039;-66
2021/07/30 09:57:15;;;;;;;4.43;2.97;;;;;;;;;;5095762;28;20567;-68
2021/07/30 09:59:42;;;;;;;9.73;3.75;;;;;;;;;;5091699;28;20052;-68
2021/07/30 10:02:12;;;;;;;7.88;3.92;;;;;;;;;;5101876;28;20043;-67
2021/07/30 10:04:40;;;;;;;7.22;3.03;;;;;;;;;;5111316;28;20061;-67
2021/07/30 10:07:09;;;;;;;5.47;3.60;;;;;;;;;;5095746;28;20023;-67
2021/07/30 10:09:35;;;;;;;6.32;3.78;;;;;;;;;;5100447;28;20035;-68
2021/07/30 10:12:02;;;;;;;6.57;3.65;;;;;;;;;;5112248;28;20065;-67
2021/07/30 10:14:29;;;;;;;4.82;3.35;;;;;;;;;;5106341;28;20023;-68
2021/07/30 10:17:02;;;;;;;5.20;3.83;;;;;;;;;;5110491;28;20619;-68
2021/07/30 10:19:32;;;;;;;3.60;3.05;;;;;;;;;;5096570;28;20051;-66
2021/07/30 10:22:00;;;;;;;4.28;3.40;;;;;;;;;;5105236;28;20035;-66
2021/07/30 10:24:28;;;;;;;4.00;2.90;;;;;;;;;;5101067;28;20034;-67
2021/07/30 10:26:55;;;;;;;5.35;3.13;;;;;;;;;;5095456;28;20031;-67
2021/07/30 10:29:21;;;;;;;6.60;3.50;;;;;;;;;;5092975;28;20023;-67
2021/07/30 10:31:51;;;;;;;4.85;3.08;;;;;;;;;;5098462;28;20036;-64
2021/07/30 10:34:18;;;;;;;4.07;2.83;;;;;;;;;;5102007;28;20032;-65
2021/07/30 10:36:44;;;;;;;3.33;2.85;;;;;;;;;;5101988;28;20039;-66
2021/07/30 10:39:12;;;;;;;3.83;2.67;;;;;;;;;;5106212;28;20110;-66
2021/07/30 10:42:01;;;;;;;3.72;3.08;;;;;;;;;;5106338;28;20040;-65
2021/07/30 10:44:30;;;;;;;5.65;3.65;;;;;;;;;;5100029;28;20036;-64
2021/07/30 10:47:19;;;;;;;3.72;2.90;;;;;;;;;;5091551;28;20023;-66
2021/07/30 10:49:45;;;;;;;4.05;3.13;;;;;;;;;;5093813;28;20397;-65
2021/07/30 10:52:25;;;;;;;4.82;3.33;;;;;;;;;;5091284;28;20030;-66
2021/07/30 10:54:51;;;;;;;3.70;3.10;;;;;;;;;;5108022;28;20157;-65
2021/07/30 10:57:36;;;;;;;5.13;3.08;;;;;;;;;;5094150;28;20042;-66
2021/07/30 11:00:08;;;;;;;7.43;3.15;;;;;;;;;;5109307;28;20047;-66
2021/07/30 11:02:53;;;;;;;6.10;3.38;;;;;;;;;;5111066;28;20467;-65
2021/07/30 11:05:19;;;;;;;3.80;3.40;;;;;;;;;;5102378;28;20051;-65
2021/07/30 11:07:58;;;;;;;5.15;3.63;;;;;;;;;;5098760;28;20536;-65
2021/07/30 11:10:24;;;;;;;5.45;3.60;;;;;;;;;;5091112;28;20032;-65
2021/07/30 11:12:53;;;;;;;4.82;3.72;;;;;;;;;;5110152;28;20114;-66
2021/07/30 11:15:20;;;;;;;6.03;4.63;;;;;;;;;;5109871;28;20059;-66
2021/07/30 11:17:50;;;;;;;10.13;6.82;;;;;;;;;;5109567;28;20611;-67
2021/07/30 11:20:16;;;;;;;6.13;3.65;;;;;;;;;;5101698;28;21923;-67
2021/07/30 11:22:42;;;;;;;9.65;4.68;;;;;;;;;;5110496;28;20378;-66
2021/07/30 11:25:14;;;;;;;5.88;3.58;;;;;;;;;;5108633;28;20023;-67
2021/07/30 11:27:40;;;;;;;11.60;7.40;;;;;;;;;;5101627;28;20151;-65
2021/07/30 11:30:07;;;;;;;10.93;6.13;;;;;;;;;;5096731;28;20072;-66
2021/07/30 11:32:33;;;;;;;7.28;4.22;;;;;;;;;;5095657;28;20031;-66
2021/07/30 11:35:08;;;;;;;11.73;6.65;;;;;;;;;;5107215;28;20027;-67
2021/07/30 11:37:35;;;;;;;11.93;7.07;;;;;;;;;;5097954;28;20077;-65
2021/07/30 11:40:01;;;;;;;13.30;6.72;;;;;;;;;;5109534;28;20051;-66
2021/07/30 11:42:34;;;;;;;5.53;3.83;;;;;;;;;;5096575;28;20040;-67
2021/07/30 11:45:07;;;;;;;6.60;3.88;;;;;;;;;;5093440;28;20059;-68
2021/07/30 11:47:34;;;;;;;4.88;3.78;;;;;;;;;;5094710;28;20031;-66
2021/07/30 11:50:07;;;;;;;12.10;7.10;;;;;;;;;;5097483;28;20108;-66
2021/07/30 11:52:34;;;;;;;6.05;4.25;;;;;;;;;;5092719;28;20482;-67
2021/07/30 11:55:19;;;;;;;6.68;4.30;;;;;;;;;;5093917;28;20039;-67
2021/07/30 11:57:46;;;;;;;12.95;7.65;;;;;;;;;;5102938;28;20032;-68
2021/07/30 12:00:21;;;;;;;5.40;3.90;;;;;;;;;;5102448;28;20470;-68
2021/07/30 12:02:47;;;;;;;12.38;7.93;;;;;;;;;;5092696;28;20038;-68
2021/07/30 12:05:14;;;;;;;11.13;6.50;;;;;;;;;;5097269;28;20024;-68
2021/07/30 12:07:40;;;;;;;4.50;3.55;;;;;;;;;;5102820;28;20032;-68
2021/07/30 12:10:08;;;;;;;6.68;4.15;;;;;;;;;;5109366;28;20437;-68
2021/07/30 12:12:39;;;;;;;5.70;3.80;;;;;;;;;;5109494;28;20042;-68
2021/07/30 12:15:05;;;;;;;7.90;5.70;;;;;;;;;;5110069;28;20034;-67
2021/07/30 12:17:32;;;;;;;6.63;4.75;;;;;;;;;;5108800;28;20088;-67
2021/07/30 12:20:02;;;;;;;8.00;4.63;;;;;;;;;;5109756;28;20031;-67
2021/07/30 12:22:39;;;;;;;3.90;3.35;;;;;;;;;;5108348;28;20455;-68
2021/07/30 12:25:06;;;;;;;4.82;3.72;;;;;;;;;;5110240;28;20047;-68
2021/07/30 12:27:33;;;;;;;9.60;5.82;;;;;;;;;;5108864;28;20023;-67
2021/07/30 12:29:59;;;;;;;8.43;5.55;;;;;;;;;;5109399;28;20028;-67
2021/07/30 12:32:26;;;;;;;8.32;5.35;;;;;;;;;;5109448;28;20049;-69
2021/07/30 12:34:57;;;;;;;6.78;4.47;;;;;;;;;;5109835;28;20102;-69
2021/07/30 12:37:23;;;;;;;5.80;3.70;;;;;;;;;;5108996;28;20031;-68
2021/07/30 12:39:53;;;;;;;5.72;3.88;;;;;;;;;;5109333;28;20028;-67
2021/07/30 12:42:20;;;;;;;5.25;3.72;;;;;;;;;;5109677;28;20023;-67
2021/07/30 12:45:02;;;;;;;7.22;3.55;;;;;;;;;;5101162;28;20027;-69
2021/07/30 12:47:28;;;;;;;6.63;4.43;;;;;;;;;;5103424;28;20040;-67
2021/07/30 12:49:55;;;;;;;5.00;3.47;;;;;;;;;;5109720;28;20031;-67
2021/07/30 12:52:21;;;;;;;4.32;2.83;;;;;;;;;;5108690;28;20027;-68
2021/07/30 12:54:47;;;;;;;4.25;2.80;;;;;;;;;;5089400;28;20107;-66
2021/07/30 12:57:15;;;;;;;4.13;3.20;;;;;;;;;;5094751;28;20027;-68
2021/07/30 12:59:55;;;;;;;3.90;2.95;;;;;;;;;;5088206;28;20123;-66
2021/07/30 13:02:22;;;;;;;4.15;3.28;;;;;;;;;;5087898;28;20035;-67
2021/07/30 13:04:49;;;;;;;15.15;8.40;;;;;;;;;;5092276;28;20048;-67
2021/07/30 13:07:15;;;;;;;8.88;7.07;;;;;;;;;;5097320;28;20016;-67
2021/07/30 13:09:41;;;;;;;6.60;4.93;;;;;;;;;;5105524;28;20497;-67
2021/07/30 13:12:07;;;;;;;9.35;4.82;;;;;;;;;;5089973;28;20078;-67
2021/07/30 13:14:34;;;;;;;9.85;5.10;;;;;;;;;;5091435;28;20057;-68
2021/07/30 13:17:00;;;;;;;5.53;3.97;;;;;;;;;;5091617;28;20074;-68
2021/07/30 13:19:26;;;;;;;7.90;4.75;;;;;;;;;;5092319;28;20051;-68
2021/07/30 13:21:55;;;;;;;5.13;3.55;;;;;;;;;;5091061;28;20154;-67
2021/07/30 13:24:22;;;;;;;3.88;3.35;;;;;;;;;;5108713;28;20470;-69
2021/07/30 13:26:48;;;;;;;9.45;5.32;;;;;;;;;;5111665;28;20042;-68
2021/07/30 13:29:14;;;;;;;7.38;4.15;;;;;;;;;;5102448;28;20383;-68
2021/07/30 13:31:40;;;;;;;4.68;3.72;;;;;;;;;;5107658;28;20532;-68
2021/07/30 13:34:07;;;;;;;4.55;3.83;;;;;;;;;;5102324;28;20020;-68
2021/07/30 13:36:33;;;;;;;2.63;2.40;;;;;;;;;;5104950;28;20024;-68
2021/07/30 13:38:59;;;;;;;3.50;3.08;;;;;;;;;;5094731;28;20046;-69
2021/07/30 13:41:25;;;;;;;4.65;2.80;;;;;;;;;;5115608;28;20019;-69
2021/07/30 13:43:51;;;;;;;4.47;2.78;;;;;;;;;;5104919;28;20482;-69
2021/07/30 13:46:17;;;;;;;3.13;2.30;;;;;;;;;;5101435;28;20038;-68
2021/07/30 13:48:45;;;;;;;2.53;2.28;;;;;;;;;;5115660;28;20024;-67
2021/07/30 13:51:11;;;;;;;3.00;2.45;;;;;;;;;;5094790;28;20111;-68
2021/07/30 13:53:37;;;;;;;3.13;2.83;;;;;;;;;;5094395;28;20032;-68
2021/07/30 13:56:03;;;;;;;8.27;4.47;;;;;;;;;;5095391;28;20031;-67
2021/07/30 13:58:31;;;;;;;4.15;3.30;;;;;;;;;;5099128;28;20028;-68
2021/07/30 14:00:57;;;;;;;3.25;2.85;;;;;;;;;;5099669;28;20491;-67
2021/07/30 14:03:23;;;;;;;6.10;3.25;;;;;;;;;;5094500;28;20017;-67
2021/07/30 14:05:50;;;;;;;6.35;4.35;;;;;;;;;;5102050;28;20543;-67
2021/07/30 14:08:17;;;;;;;4.07;3.70;;;;;;;;;;5114978;28;20020;-67
2021/07/30 14:10:44;;;;;;;4.13;3.40;;;;;;;;;;5099538;28;20520;-67
2021/07/30 14:13:10;;;;;;;3.15;2.85;;;;;;;;;;5113589;28;20024;-67
2021/07/30 14:15:36;;;;;;;3.38;3.00;;;;;;;;;;5109971;28;20103;-67
2021/07/30 14:18:06;;;;;;;2.45;2.25;;;;;;;;;;5114665;28;20550;-68
2021/07/30 14:20:32;;;;;;;2.95;2.03;;;;;;;;;;5102315;28;20046;-67
2021/07/30 14:22:59;;;;;;;2.35;2.15;;;;;;;;;;5107081;28;20036;-69
2021/07/30 14:25:25;;;;;;;2.70;1.88;;;;;;;;;;5115032;28;20020;-67
2021/07/30 14:27:51;;;;;;;2.38;1.90;;;;;;;;;;5114796;28;20038;-68
2021/07/30 14:30:18;;;;;;;2.40;2.20;;;;;;;;;;5114419;28;20048;-69
2021/07/30 14:32:44;;;;;;;2.80;2.50;;;;;;;;;;5102151;28;20027;-68
2021/07/30 14:35:10;;;;;;;2.47;2.28;;;;;;;;;;5093954;28;20023;-68
2021/07/30 14:37:37;;;;;;;2.88;2.50;;;;;;;;;;5093944;28;20017;-68
2021/07/30 14:40:04;;;;;;;2.30;2.10;;;;;;;;;;5105408;28;20028;-69
2021/07/30 14:42:30;;;;;;;2.20;1.98;;;;;;;;;;5114355;28;20129;-68